Time;durP1;ratioP1;P1;durP2;ratioP2;P2;SDS_P1;SDS_P2;PMS_P1;PMS_P2;Temp;Humidity;BMP_temperature;BMP_pressure;BME280_temperature;BME280_humidity;BME280_pressure;Samples;Min_cycle;Max_cycle;Signal;HPM_P1;HPM_P2
2022/09/27 00:01:16;;;;;;;0.70;0.70;;;;;;;-145.69;100.00;70713.97;5033437;28;20231;-74
2022/09/27 00:03:43;;;;;;;0.60;0.60;;;;;;;-145.69;100.00;70721.91;5033745;28;20207;-75
2022/09/27 00:06:13;;;;;;;5.60;0.70;;;;;;;-145.69;100.00;70713.97;5033687;28;20208;-75
2022/09/27 00:08:40;;;;;;;0.70;0.70;;;;;;;-145.69;100.00;70715.94;5033730;28;20207;-75
2022/09/27 00:11:12;;;;;;;0.60;0.60;;;;;;;-145.69;100.00;70717.94;5033382;28;20266;-74
2022/09/27 00:13:38;;;;;;;0.60;0.60;;;;;;;-145.69;100.00;70717.94;5033804;28;20233;-75
2022/09/27 00:16:06;;;;;;;0.63;0.60;;;;;;;-145.69;100.00;70709.97;5033430;28;20236;-77
2022/09/27 00:18:33;;;;;;;0.73;0.73;;;;;;;-145.69;100.00;70708.00;5032893;28;20220;-74
2022/09/27 00:21:05;;;;;;;0.50;0.50;;;;;;;-145.69;100.00;70708.00;5033315;28;20228;-74
2022/09/27 00:23:31;;;;;;;0.50;0.50;;;;;;;-145.69;100.00;70706.00;5032506;28;20574;-74
2022/09/27 00:25:59;;;;;;;0.77;0.53;;;;;;;-145.69;100.00;70709.97;5033140;28;20200;-74
2022/09/27 00:28:26;;;;;;;0.60;0.60;;;;;;;-145.69;100.00;70708.00;5033348;28;20196;-74
2022/09/27 00:30:53;;;;;;;2.20;0.60;;;;;;;-145.69;100.00;70702.03;5033203;28;20696;-74
2022/09/27 00:33:21;;;;;;;1.20;0.60;;;;;;;-145.69;100.00;70709.97;5032108;28;20473;-73
2022/09/27 00:35:48;;;;;;;0.73;0.60;;;;;;;-145.69;100.00;70702.03;5033218;28;20195;-74
2022/09/27 00:38:14;;;;;;;1.37;0.60;;;;;;;-145.69;100.00;70696.06;5033132;28;20211;-74
2022/09/27 00:40:41;;;;;;;1.30;0.80;;;;;;;-145.69;100.00;70690.09;5033204;28;20200;-74
2022/09/27 00:43:15;;;;;;;0.60;0.60;;;;;;;-145.69;100.00;70694.06;5033048;28;20562;-74
2022/09/27 00:45:42;;;;;;;0.67;0.60;;;;;;;-145.69;100.00;70698.03;5033180;28;20208;-74
2022/09/27 00:48:15;;;;;;;0.47;0.47;;;;;;;-145.69;100.00;70686.09;5033130;28;20204;-74
2022/09/27 00:50:46;;;;;;;0.60;0.60;;;;;;;-145.69;100.00;70684.13;5033277;28;20204;-74
2022/09/27 00:53:16;;;;;;;0.60;0.60;;;;;;;-145.69;100.00;70688.09;5033004;28;20254;-73
2022/09/27 00:55:49;;;;;;;2.17;0.63;;;;;;;-145.69;100.00;70694.06;5032063;28;20449;-73
2022/09/27 00:58:18;;;;;;;1.10;0.70;;;;;;;-145.69;100.00;70686.09;5032949;28;20203;-73
2022/09/27 01:00:50;;;;;;;0.43;0.43;;;;;;;-145.69;100.00;70686.09;5032744;28;20200;-73
2022/09/27 01:03:25;;;;;;;1.90;0.80;;;;;;;-145.69;100.00;70686.09;5032848;28;20199;-74
2022/09/27 01:05:53;;;;;;;5.30;1.33;;;;;;;-145.69;100.00;70684.13;5033026;28;20250;-75
2022/09/27 01:08:19;;;;;;;1.80;0.60;;;;;;;-145.69;100.00;70686.09;5032872;28;20199;-74
2022/09/27 01:10:56;;;;;;;0.70;0.50;;;;;;;-145.69;100.00;70684.13;5032784;28;20207;-74
2022/09/27 01:13:30;;;;;;;0.50;0.50;;;;;;;-145.69;100.00;70682.13;5032700;28;20207;-74
2022/09/27 01:16:04;;;;;;;1.03;0.50;;;;;;;-145.69;100.00;70676.16;5032526;28;20720;-74
2022/09/27 01:18:35;;;;;;;0.70;0.70;;;;;;;-145.69;100.00;70672.19;5032939;28;20210;-75
2022/09/27 01:21:24;;;;;;;0.40;0.40;;;;;;;-145.69;100.00;70658.25;5032742;28;20255;-74
2022/09/27 01:24:04;;;;;;;0.70;0.70;;;;;;;-145.69;100.00;70660.25;5032074;28;20200;-74
2022/09/27 01:27:01;;;;;;;1.27;0.57;;;;;;;-145.69;100.00;70664.22;5032901;28;20196;-74
2022/09/27 01:29:36;;;;;;;0.60;0.60;;;;;;;-145.69;100.00;70660.25;5033000;28;20532;-74
2022/09/27 01:32:11;;;;;;;2.10;0.50;;;;;;;-145.69;100.00;70654.28;5036517;28;20234;-74
2022/09/27 01:34:44;;;;;;;1.73;0.50;;;;;;;-145.69;100.00;70658.25;5036494;28;20203;-75
2022/09/27 01:37:20;;;;;;;0.57;0.57;;;;;;;-145.69;100.00;70654.28;5036644;28;20204;-74
2022/09/27 01:39:56;;;;;;;0.67;0.67;;;;;;;-145.69;100.00;70650.28;5036206;28;20207;-75
2022/09/27 01:42:26;;;;;;;0.60;0.50;;;;;;;-145.69;100.00;70652.28;5036255;28;20227;-75
2022/09/27 01:45:01;;;;;;;0.60;0.60;;;;;;;-145.69;100.00;70654.28;5036606;28;20616;-74
2022/09/27 01:47:33;;;;;;;2.93;0.50;;;;;;;-145.69;100.00;70658.25;5035896;28;20192;-74
2022/09/27 01:50:04;;;;;;;0.63;0.63;;;;;;;-145.69;100.00;70654.28;5035936;28;20204;-75
2022/09/27 01:52:36;;;;;;;0.50;0.40;;;;;;;-145.69;100.00;70654.28;5036047;28;20208;-75
2022/09/27 01:55:06;;;;;;;0.73;0.30;;;;;;;-145.69;100.00;70654.28;5036132;28;20196;-75
2022/09/27 01:57:37;;;;;;;0.40;0.40;;;;;;;-145.69;100.00;70650.28;5035923;28;20193;-74
2022/09/27 02:00:06;;;;;;;0.60;0.60;;;;;;;-145.69;100.00;70668.19;5036178;28;20204;-74
2022/09/27 02:02:38;;;;;;;4.63;0.50;;;;;;;-145.69;100.00;70660.25;5035936;28;20587;-74
2022/09/27 02:05:08;;;;;;;0.60;0.60;;;;;;;-145.69;100.00;70662.22;5035885;28;20231;-74
2022/09/27 02:07:39;;;;;;;0.60;0.60;;;;;;;-145.69;100.00;70670.19;5035819;28;20239;-74
2022/09/27 02:10:11;;;;;;;0.60;0.57;;;;;;;-145.69;100.00;70674.16;5036128;28;20200;-74
2022/09/27 02:12:45;;;;;;;0.97;0.50;;;;;;;-145.69;100.00;70672.19;5035946;28;20590;-74
2022/09/27 02:15:14;;;;;;;1.50;0.50;;;;;;;-145.69;100.00;70674.16;5034688;28;20517;-74
2022/09/27 02:17:47;;;;;;;0.40;0.40;;;;;;;-145.69;100.00;70682.13;5035742;28;20204;-74
2022/09/27 02:20:19;;;;;;;0.60;0.60;;;;;;;-145.69;100.00;70678.16;5035612;28;20212;-74
2022/09/27 02:22:51;;;;;;;0.50;0.50;;;;;;;-145.69;100.00;70676.16;5035711;28;20228;-73
2022/09/27 02:25:23;;;;;;;0.50;0.40;;;;;;;-145.69;100.00;70680.13;5035684;28;20200;-74
2022/09/27 02:27:59;;;;;;;0.40;0.40;;;;;;;-145.69;100.00;70686.09;5034787;28;20701;-74
2022/09/27 02:30:25;;;;;;;0.50;0.50;;;;;;;-145.69;100.00;70690.09;5035422;28;20199;-74
2022/09/27 02:32:53;;;;;;;1.43;0.50;;;;;;;-145.69;100.00;70698.03;5035370;28;20539;-75
2022/09/27 02:35:26;;;;;;;0.90;0.50;;;;;;;-145.69;100.00;70702.03;5035549;28;20208;-75
2022/09/27 02:37:53;;;;;;;0.70;0.60;;;;;;;-145.69;100.00;70706.00;5035263;28;20689;-75
2022/09/27 02:40:20;;;;;;;0.50;0.50;;;;;;;-145.69;100.00;70702.03;5035374;28;20211;-74
2022/09/27 02:42:47;;;;;;;0.70;0.70;;;;;;;-145.69;100.00;70715.94;5034497;28;20270;-76
2022/09/27 02:45:16;;;;;;;0.80;0.70;;;;;;;-145.69;100.00;70704.00;5035351;28;20210;-74
2022/09/27 02:48:05;;;;;;;1.30;0.67;;;;;;;-145.69;100.00;70719.94;5035282;28;20262;-75
2022/09/27 02:50:48;;;;;;;0.87;0.77;;;;;;;-145.69;100.00;70725.91;5035157;28;20204;-74
2022/09/27 02:53:25;;;;;;;1.17;0.70;;;;;;;-145.69;100.00;70729.88;5034713;28;20212;-74
2022/09/27 02:56:00;;;;;;;2.90;1.10;;;;;;;-145.69;100.00;70739.81;5035157;28;20200;-74
2022/09/27 02:58:42;;;;;;;2.37;0.60;;;;;;;-145.69;100.00;70753.75;5034843;28;20650;-75
2022/09/27 03:01:15;;;;;;;0.90;0.70;;;;;;;-145.69;100.00;70747.78;5035047;28;20563;-74
2022/09/27 03:03:49;;;;;;;1.33;1.00;;;;;;;-145.69;100.00;70763.69;5034738;28;20685;-74
2022/09/27 03:06:18;;;;;;;1.73;1.03;;;;;;;-145.69;100.00;70773.66;5035033;28;20210;-74
2022/09/27 03:08:45;;;;;;;1.00;0.90;;;;;;;-145.69;100.00;70773.66;5034926;28;20207;-74
2022/09/27 03:11:12;;;;;;;2.10;0.90;;;;;;;-145.69;100.00;70787.56;5034820;28;20203;-74
2022/09/27 03:13:39;;;;;;;2.23;1.10;;;;;;;-145.69;100.00;70797.53;5034749;28;20215;-74
2022/09/27 03:16:06;;;;;;;2.93;1.20;;;;;;;-145.69;100.00;70789.56;5034411;28;20323;-74
2022/09/27 03:18:32;;;;;;;1.57;1.00;;;;;;;-145.69;100.00;70797.53;5034602;28;20204;-74
2022/09/27 03:21:00;;;;;;;4.72;1.30;;;;;;;-145.69;100.00;70809.47;5033867;28;20440;-74
2022/09/27 03:23:27;;;;;;;1.87;1.10;;;;;;;-145.69;100.00;70813.44;5034260;28;20231;-74
2022/09/27 03:25:53;;;;;;;2.90;1.50;;;;;;;-145.69;100.00;70819.41;5034612;28;20238;-74
2022/09/27 03:28:20;;;;;;;4.90;1.50;;;;;;;-145.69;100.00;70833.34;5034470;28;20200;-74
2022/09/27 03:30:47;;;;;;;4.80;1.70;;;;;;;-145.69;100.00;70839.31;5034267;28;20204;-74
2022/09/27 03:33:14;;;;;;;2.33;1.33;;;;;;;-145.69;100.00;70841.28;5034603;28;20200;-75
2022/09/27 03:35:42;;;;;;;3.10;1.40;;;;;;;-145.69;100.00;70843.28;5034337;28;20227;-74
2022/09/27 03:38:10;;;;;;;4.83;1.57;;;;;;;-145.69;100.00;70843.28;5034295;28;20200;-74
2022/09/27 03:40:37;;;;;;;6.87;1.77;;;;;;;-145.69;100.00;70841.28;5034257;28;20223;-74
2022/09/27 03:43:03;;;;;;;9.57;1.70;;;;;;;-145.69;100.00;70841.28;5034044;28;20238;-74
2022/09/27 03:45:30;;;;;;;6.10;1.90;;;;;;;-145.69;100.00;70843.28;5033186;28;20946;-75
2022/09/27 03:47:56;;;;;;;3.17;1.30;;;;;;;-145.69;100.00;70839.31;5034237;28;20201;-73
2022/09/27 03:50:23;;;;;;;8.13;2.27;;;;;;;-145.69;100.00;70841.28;5033933;28;20208;-74
2022/09/27 03:52:53;;;;;;;10.83;2.50;;;;;;;-145.69;100.00;70849.25;5033587;28;20203;-74
2022/09/27 03:55:21;;;;;;;5.53;1.67;;;;;;;-145.69;100.00;70837.31;5033524;28;20210;-74
2022/09/27 03:57:47;;;;;;;13.83;1.87;;;;;;;-145.69;100.00;70845.28;5033821;28;20196;-74
2022/09/27 04:00:14;;;;;;;6.63;2.30;;;;;;;-145.69;100.00;70849.25;5033929;28;20208;-74
2022/09/27 04:02:41;;;;;;;9.27;2.23;;;;;;;-145.69;100.00;70851.25;5033803;28;20231;-74
2022/09/27 04:05:08;;;;;;;8.73;2.50;;;;;;;-145.69;100.00;70853.22;5033578;28;20200;-74
2022/09/27 04:07:34;;;;;;;6.97;1.70;;;;;;;-145.69;100.00;70853.22;5033762;28;20563;-74
2022/09/27 04:10:01;;;;;;;4.67;2.03;;;;;;;-145.69;100.00;70857.22;5033593;28;20203;-74
2022/09/27 04:12:29;;;;;;;5.50;2.00;;;;;;;-145.69;100.00;70851.25;5033460;28;20208;-74
2022/09/27 04:14:55;;;;;;;13.10;3.03;;;;;;;-145.69;100.00;70857.22;5033671;28;20203;-75
2022/09/27 04:17:22;;;;;;;10.10;2.40;;;;;;;-145.69;100.00;70853.22;5033318;28;20729;-74
2022/09/27 04:19:48;;;;;;;8.20;2.23;;;;;;;-145.69;100.00;70857.22;5033356;28;20200;-74
2022/09/27 04:22:15;;;;;;;14.10;2.72;;;;;;;-145.69;100.00;70859.19;5032797;28;20970;-74
2022/09/27 04:24:41;;;;;;;6.53;2.40;;;;;;;-145.69;100.00;70849.25;5033244;28;20212;-74
2022/09/27 04:27:08;;;;;;;7.90;2.03;;;;;;;-145.69;100.00;70851.25;5033236;28;20199;-74
2022/09/27 04:29:36;;;;;;;12.07;2.60;;;;;;;-145.69;100.00;70849.25;5033025;28;20200;-74
2022/09/27 04:32:02;;;;;;;10.25;2.95;;;;;;;-145.69;100.00;70853.22;5033017;28;20919;-74
2022/09/27 04:37:10;;;;;;;7.10;2.80;;;;;;;-145.69;100.00;70857.22;5033290;28;20250;-74
2022/09/27 04:39:38;;;;;;;13.70;3.50;;;;;;;-145.69;100.00;70855.22;5032979;28;20254;-74
2022/09/27 04:42:05;;;;;;;14.03;3.07;;;;;;;-145.69;100.00;70857.22;5033240;28;20234;-74
2022/09/27 04:44:33;;;;;;;10.17;3.40;;;;;;;-145.69;100.00;70857.22;5033137;28;20283;-73
2022/09/27 04:47:02;;;;;;;12.73;2.77;;;;;;;-145.69;100.00;70865.16;5033200;28;20295;-74
2022/09/27 04:49:30;;;;;;;6.53;2.63;;;;;;;-145.69;100.00;70883.06;5033112;28;20204;-74
2022/09/27 04:51:56;;;;;;;9.40;3.47;;;;;;;-145.69;100.00;70944.75;5032973;28;20211;-73
2022/09/27 04:54:25;;;;;;;1.57;1.23;;;;;;;-145.69;100.00;71018.38;5032900;28;20227;-74
2022/09/27 04:56:52;;;;;;;1.73;0.90;;;;;;;-145.69;100.00;71034.28;5033073;28;20203;-74
2022/09/27 04:59:18;;;;;;;5.27;1.10;;;;;;;-145.69;100.00;71044.22;5033059;28;20204;-73
2022/09/27 05:01:45;;;;;;;4.00;1.27;;;;;;;-145.69;100.00;71064.13;5032890;28;20211;-73
2022/09/27 05:04:13;;;;;;;6.60;1.13;;;;;;;-145.69;100.00;71074.09;5032957;28;20623;-73
2022/09/27 05:06:41;;;;;;;1.70;1.23;;;;;;;-145.69;100.00;71066.13;5039078;28;20203;-73
2022/09/27 05:09:07;;;;;;;2.53;1.30;;;;;;;-145.69;100.00;71072.09;5039195;28;20433;-74
2022/09/27 05:11:36;;;;;;;3.67;1.37;;;;;;;-145.69;100.00;71082.03;5039602;28;20199;-74
2022/09/27 05:14:06;;;;;;;5.40;1.43;;;;;;;-145.69;100.00;71088.00;5038920;28;20207;-74
2022/09/27 05:16:34;;;;;;;4.90;1.90;;;;;;;-145.69;100.00;71090.00;5039299;28;20235;-73
2022/09/27 05:19:01;;;;;;;4.07;1.80;;;;;;;-145.69;100.00;71092.00;5039227;28;20294;-74
2022/09/27 05:21:30;;;;;;;8.93;1.50;;;;;;;-145.69;100.00;71088.00;5039513;28;20295;-74
2022/09/27 05:23:57;;;;;;;5.90;1.67;;;;;;;-145.69;100.00;71084.03;5038979;28;20230;-74
2022/09/27 05:26:25;;;;;;;5.07;1.20;;;;;;;-145.69;100.00;71086.03;5039419;28;20199;-74
2022/09/27 05:28:52;;;;;;;4.53;1.57;;;;;;;-145.69;100.00;71088.00;5039096;28;20655;-74
2022/09/27 05:31:18;;;;;;;4.43;1.23;;;;;;;-145.69;100.00;71088.00;5039062;28;20582;-74
2022/09/27 05:33:45;;;;;;;2.20;1.33;;;;;;;-145.69;100.00;71092.00;5038863;28;20558;-74
2022/09/27 05:36:11;;;;;;;3.42;1.42;;;;;;;-145.69;100.00;71092.00;5038938;28;20441;-74
2022/09/27 05:38:40;;;;;;;2.97;1.10;;;;;;;-145.69;100.00;71092.00;5038756;28;20663;-74
2022/09/27 05:41:09;;;;;;;4.20;1.23;;;;;;;-145.69;100.00;71093.97;5039229;28;20203;-74
2022/09/27 05:43:36;;;;;;;2.83;1.13;;;;;;;-145.69;100.00;71099.94;5039021;28;20228;-74
2022/09/27 05:46:05;;;;;;;2.93;1.40;;;;;;;-145.69;100.00;71092.00;5039166;28;20200;-74
2022/09/27 05:48:32;;;;;;;3.20;1.30;;;;;;;-145.69;100.00;71095.97;5039004;28;20200;-74
2022/09/27 05:50:58;;;;;;;2.33;1.40;;;;;;;-145.69;100.00;71092.00;5039213;28;20203;-74
2022/09/27 05:53:27;;;;;;;3.13;1.40;;;;;;;-145.69;100.00;71086.03;5039194;28;20239;-74
2022/09/27 05:55:55;;;;;;;3.20;1.43;;;;;;;-145.69;100.00;71080.06;5038648;28;20207;-74
2022/09/27 05:58:22;;;;;;;3.13;1.27;;;;;;;-145.69;100.00;71072.09;5039026;28;20207;-74
2022/09/27 06:00:48;;;;;;;2.30;1.30;;;;;;;-145.69;100.00;71072.09;5038698;28;20195;-74
2022/09/27 06:03:15;;;;;;;2.60;1.23;;;;;;;-145.69;100.00;71060.16;5038903;28;20230;-74
2022/09/27 06:05:41;;;;;;;3.43;1.30;;;;;;;-145.69;100.00;71064.13;5039055;28;20204;-75
2022/09/27 06:08:11;;;;;;;3.07;1.17;;;;;;;-145.69;100.00;71048.22;5038571;28;20226;-75
2022/09/27 06:10:39;;;;;;;11.47;6.77;;;;;;;-145.69;100.00;71040.25;5039230;28;20194;-74
2022/09/27 06:13:09;;;;;;;5.63;1.90;;;;;;;-145.69;100.00;71040.25;5038803;28;20562;-75
2022/09/27 06:15:38;;;;;;;3.53;1.27;;;;;;;-145.69;100.00;71040.25;5038544;28;20247;-74
2022/09/27 06:18:06;;;;;;;5.80;1.30;;;;;;;-145.69;100.00;71048.22;5034966;28;20217;-74
2022/09/27 06:20:34;;;;;;;3.47;1.67;;;;;;;-145.69;100.00;71046.22;5035799;28;20207;-74
2022/09/27 06:23:06;;;;;;;4.47;1.60;;;;;;;-145.69;100.00;71052.19;5035644;28;20228;-73
2022/09/27 06:25:33;;;;;;;5.30;1.40;;;;;;;-145.69;100.00;71056.16;5035361;28;20227;-76
2022/09/27 06:27:59;;;;;;;1.37;1.10;;;;;;;-145.69;100.00;71056.16;5035465;28;20235;-75
2022/09/27 06:30:27;;;;;;;4.80;1.30;;;;;;;-145.69;100.00;71052.19;5035105;28;20558;-76
2022/09/27 06:32:58;;;;;;;1.23;1.13;;;;;;;-145.69;100.00;71058.16;5035512;28;20197;-73
2022/09/27 06:35:25;;;;;;;3.53;1.70;;;;;;;-145.69;100.00;71050.22;5035539;28;20246;-73
2022/09/27 06:37:51;;;;;;;6.17;3.47;;;;;;;-145.69;100.00;71044.22;5035386;28;20302;-73
2022/09/27 06:40:18;;;;;;;3.40;2.10;;;;;;;-145.69;100.00;71052.19;5035366;28;20196;-76
2022/09/27 06:42:44;;;;;;;7.07;1.63;;;;;;;-145.69;100.00;71068.13;5035008;28;20239;-74
2022/09/27 06:45:11;;;;;;;6.23;1.40;;;;;;;-145.69;100.00;71070.09;5035393;28;20286;-74
2022/09/27 06:47:39;;;;;;;4.20;1.17;;;;;;;-145.69;100.00;71066.13;5035108;28;20207;-74
2022/09/27 06:50:06;;;;;;;3.23;1.30;;;;;;;-145.69;100.00;71068.13;5035240;28;20226;-74
2022/09/27 06:52:33;;;;;;;3.17;1.07;;;;;;;-145.69;100.00;71074.09;5035207;28;20203;-74
2022/09/27 06:55:00;;;;;;;5.27;1.00;;;;;;;-145.69;100.00;71084.03;5034606;28;20192;-74
2022/09/27 07:00:25;;;;;;;2.90;0.97;;;;;;;-145.69;100.00;71062.13;5034962;28;20281;-74
2022/09/27 07:02:59;;;;;;;2.17;1.37;;;;;;;-145.69;100.00;71048.22;5034843;28;20231;-74
2022/09/27 07:05:27;;;;;;;2.77;1.20;;;;;;;-145.69;100.00;71064.13;5034760;28;20558;-74
2022/09/27 07:07:56;;;;;;;3.73;1.30;;;;;;;-145.69;100.00;71066.13;5034975;28;20203;-75
2022/09/27 07:10:24;;;;;;;3.00;1.47;;;;;;;-145.69;100.00;71056.16;5034718;28;20655;-76
2022/09/27 07:12:51;;;;;;;5.83;1.33;;;;;;;-145.69;100.00;71050.22;5034620;28;20797;-75
2022/09/27 07:15:20;;;;;;;2.90;1.50;;;;;;;-145.69;100.00;71056.16;5034554;28;20550;-76
2022/09/27 07:17:46;;;;;;;3.47;1.50;;;;;;;-145.69;100.00;71028.31;5034648;28;20608;-75
2022/09/27 07:20:14;;;;;;;5.43;1.33;;;;;;;-145.69;100.00;71008.41;5034555;28;20208;-75
2022/09/27 07:22:44;;;;;;;3.37;1.93;;;;;;;-145.69;100.00;71012.41;5034395;28;20227;-74
2022/09/27 07:25:10;;;;;;;2.73;1.33;;;;;;;-145.69;100.00;71026.31;5034367;28;20232;-74
2022/09/27 07:27:37;;;;;;;2.43;1.30;;;;;;;-145.69;100.00;71012.41;5034368;28;20200;-75
2022/09/27 07:30:06;;;;;;;2.93;1.30;;;;;;;-145.69;100.00;71004.44;5034454;28;20219;-75
2022/09/27 07:32:34;;;;;;;2.40;1.40;;;;;;;-145.69;100.00;70980.56;5034238;28;20303;-75
2022/09/27 07:35:00;;;;;;;2.23;1.10;;;;;;;-145.69;100.00;71000.47;5034557;28;20203;-75
2022/09/27 07:37:28;;;;;;;3.90;1.40;;;;;;;-145.69;100.00;71016.38;5034460;28;20201;-74
2022/09/27 07:39:55;;;;;;;2.10;1.27;;;;;;;-145.69;100.00;71008.41;5034198;28;20199;-76
2022/09/27 07:42:21;;;;;;;2.40;1.50;;;;;;;-145.69;100.00;71016.38;5034186;28;20295;-75
2022/09/27 07:44:48;;;;;;;3.87;1.43;;;;;;;-145.69;100.00;71016.38;5034003;28;20231;-74
2022/09/27 07:47:15;;;;;;;6.97;2.93;;;;;;;-145.69;100.00;71006.44;5034056;28;20203;-74
2022/09/27 07:49:42;;;;;;;5.67;1.50;;;;;;;-145.69;100.00;71008.41;5034210;28;20621;-74
2022/09/27 07:52:08;;;;;;;1.53;1.10;;;;;;;-145.69;100.00;71020.34;5033948;28;20662;-75
2022/09/27 07:54:36;;;;;;;5.03;1.43;;;;;;;-145.69;100.00;71010.41;5033797;28;20201;-74
2022/09/27 07:57:03;;;;;;;3.00;1.30;;;;;;;-145.69;100.00;71024.34;5033986;28;20196;-76
2022/09/27 07:59:29;;;;;;;1.80;1.50;;;;;;;-145.69;100.00;71024.34;5033698;28;20651;-76
2022/09/27 08:01:56;;;;;;;4.77;2.03;;;;;;;-145.69;100.00;71008.41;5034019;28;20244;-76
2022/09/27 08:04:22;;;;;;;2.47;1.27;;;;;;;-145.69;100.00;71020.34;5033682;28;20228;-77
2022/09/27 08:06:49;;;;;;;2.57;1.47;;;;;;;-145.69;100.00;71024.34;5033779;28;20666;-76
2022/09/27 08:09:15;;;;;;;2.10;1.40;;;;;;;-145.69;100.00;71010.41;5033623;28;20781;-76
2022/09/27 08:11:44;;;;;;;2.67;1.73;;;;;;;-145.69;100.00;70974.59;5033669;28;20204;-75
2022/09/27 08:14:11;;;;;;;3.60;1.50;;;;;;;-145.69;100.00;70990.50;5033512;28;20200;-75
2022/09/27 08:16:37;;;;;;;5.70;1.50;;;;;;;-145.69;100.00;71000.47;5033495;28;20594;-75
2022/09/27 08:19:03;;;;;;;2.27;1.57;;;;;;;-145.69;100.00;70980.56;5033565;28;20219;-74
2022/09/27 08:21:30;;;;;;;7.70;2.00;;;;;;;-145.69;100.00;70972.59;5033561;28;20532;-76
2022/09/27 08:23:58;;;;;;;5.00;2.60;;;;;;;-145.69;100.00;70968.63;5033420;28;20228;-75
2022/09/27 08:26:24;;;;;;;3.97;1.53;;;;;;;-145.69;100.00;70960.66;5033455;28;20246;-75
2022/09/27 08:28:52;;;;;;;3.73;1.63;;;;;;;-145.69;100.00;70986.53;5032895;28;20208;-75
2022/09/27 08:31:19;;;;;;;1.43;1.07;;;;;;;-145.69;100.00;70992.50;5033269;28;20208;-75
2022/09/27 08:33:49;;;;;;;1.97;1.00;;;;;;;-145.69;100.00;70976.59;5033453;28;20610;-76
2022/09/27 08:36:15;;;;;;;2.20;1.00;;;;;;;-145.69;100.00;71002.44;5033136;28;20286;-77
2022/09/27 08:38:42;;;;;;;2.47;1.10;;;;;;;-145.69;100.00;70982.56;5032828;28;20663;-76
2022/09/27 08:41:15;;;;;;;2.50;1.33;;;;;;;-145.69;100.00;70978.56;5032448;28;20196;-76
2022/09/27 08:43:53;;;;;;;2.13;1.03;;;;;;;-145.69;100.00;70988.53;5033113;28;20227;-76
2022/09/27 08:46:29;;;;;;;3.43;1.30;;;;;;;-145.69;100.00;71020.34;5033232;28;20254;-77
2022/09/27 08:49:05;;;;;;;4.97;1.40;;;;;;;-145.69;100.00;71004.44;5033136;28;20286;-75
2022/09/27 08:51:33;;;;;;;3.53;1.37;;;;;;;-145.69;100.00;71020.34;5033017;28;20200;-77
2022/09/27 08:54:06;;;;;;;1.20;1.00;;;;;;;-145.69;100.00;71048.22;5032817;28;20200;-77
2022/09/27 08:56:33;;;;;;;1.73;1.37;;;;;;;-145.69;100.00;71046.22;5032823;28;20196;-77
2022/09/27 08:59:07;;;;;;;1.87;1.03;;;;;;;-145.69;100.00;71048.22;5013922;28;20197;-77
2022/09/27 09:01:35;;;;;;;3.93;1.00;;;;;;;-145.69;100.00;71044.22;5013268;28;20208;-77
2022/09/27 09:04:03;;;;;;;2.87;1.20;;;;;;;-145.69;100.00;71048.22;5013121;28;20237;-76
2022/09/27 09:06:39;;;;;;;2.43;0.90;;;;;;;-145.69;100.00;71046.22;5013031;28;20671;-77
2022/09/27 09:09:19;;;;;;;1.43;0.93;;;;;;;-145.69;100.00;71030.31;5013267;28;20204;-77
2022/09/27 09:14:55;;;;;;;0.80;0.80;;;;;;;-145.69;100.00;70992.50;5013028;28;20720;-76
2022/09/27 09:17:37;;;;;;;1.13;1.00;;;;;;;-145.69;100.00;70964.66;5013007;28;20228;-76
2022/09/27 09:20:19;;;;;;;1.60;1.07;;;;;;;-145.69;100.00;70988.53;5013142;28;20224;-77
2022/09/27 09:23:05;;;;;;;1.93;1.07;;;;;;;-145.69;100.00;70978.56;5013023;28;20587;-76
2022/09/27 09:25:41;;;;;;;2.80;1.20;;;;;;;-145.69;100.00;70924.84;5026101;28;20203;-76
2022/09/27 09:28:22;;;;;;;1.67;0.90;;;;;;;-145.69;100.00;70922.88;5032748;28;20203;-76
2022/09/27 09:30:57;;;;;;;3.50;1.13;;;;;;;-145.69;100.00;70934.81;5032587;28;20207;-76
2022/09/27 09:33:31;;;;;;;2.07;1.20;;;;;;;-145.69;100.00;70922.88;5032562;28;20523;-76
2022/09/27 09:36:01;;;;;;;1.23;1.10;;;;;;;-145.69;100.00;70904.97;5032633;28;20223;-75
2022/09/27 09:38:35;;;;;;;3.40;2.13;;;;;;;-145.69;100.00;70902.97;5031308;28;20247;-74
2022/09/27 09:41:06;;;;;;;3.07;1.83;;;;;;;-145.69;100.00;70885.06;5013057;28;20200;-74
2022/09/27 09:43:35;;;;;;;3.60;1.30;;;;;;;-145.69;100.00;70883.06;5011613;28;20489;-74
2022/09/27 09:46:09;;;;;;;3.23;1.33;;;;;;;-145.69;100.00;70863.19;5012467;28;20454;-73
2022/09/27 09:48:44;;;;;;;4.40;1.00;;;;;;;-145.69;100.00;70893.03;5012881;28;20205;-74
2022/09/27 09:51:16;;;;;;;3.77;1.30;;;;;;;-145.69;100.00;70883.06;5012768;28;20210;-75
2022/09/27 09:53:49;;;;;;;3.30;1.50;;;;;;;-145.69;100.00;70902.97;5016388;28;20212;-74
2022/09/27 09:56:20;;;;;;;3.37;1.10;;;;;;;-145.69;100.00;70916.91;5035281;28;20200;-75
2022/09/27 09:58:51;;;;;;;5.63;1.27;;;;;;;-145.69;100.00;70914.91;5036226;28;20200;-75
2022/09/27 10:01:20;;;;;;;4.37;1.73;;;;;;;-145.69;100.00;70885.06;5035714;28;20192;-75
2022/09/27 10:03:49;;;;;;;2.83;1.20;;;;;;;-145.69;100.00;70906.94;5035915;28;20266;-76
2022/09/27 10:06:16;;;;;;;1.87;1.20;;;;;;;-145.69;100.00;70904.97;5035879;28;20203;-74
2022/09/27 10:08:43;;;;;;;3.17;1.10;;;;;;;-145.69;100.00;70869.16;5035764;28;20207;-75
2022/09/27 10:11:19;;;;;;;2.43;1.10;;;;;;;-145.69;100.00;70843.28;5036139;28;20200;-75
2022/09/27 10:13:46;;;;;;;1.93;0.77;;;;;;;-145.69;100.00;70847.25;5036042;28;20203;-76
2022/09/27 10:16:15;;;;;;;2.00;1.03;;;;;;;-145.69;100.00;70865.16;5035714;28;20243;-75
2022/09/27 10:18:42;;;;;;;2.23;1.00;;;;;;;-145.69;100.00;70853.22;5035615;28;20562;-75
2022/09/27 10:21:15;;;;;;;4.07;1.20;;;;;;;-145.69;100.00;70857.22;5035692;28;20203;-75
2022/09/27 10:24:04;;;;;;;2.17;1.30;;;;;;;-145.69;100.00;70787.56;5035401;28;20196;-75
2022/09/27 10:26:31;;;;;;;1.33;0.70;;;;;;;-145.69;100.00;70737.84;5015893;28;20201;-77
2022/09/27 10:29:13;;;;;;;1.60;0.70;;;;;;;-145.69;100.00;70835.31;5015835;28;20207;-75
2022/09/27 10:31:44;;;;;;;5.27;1.13;;;;;;;-145.69;100.00;70837.31;5015604;28;20208;-76
2022/09/27 10:34:18;;;;;;;4.53;0.77;;;;;;;-145.69;100.00;70831.34;5015880;28;20236;-76
2022/09/27 10:36:46;;;;;;;3.93;1.20;;;;;;;-145.69;100.00;70773.66;5015937;28;20567;-76
2022/09/27 10:39:23;;;;;;;2.63;0.93;;;;;;;-145.69;100.00;70789.56;5020242;28;20196;-76
2022/09/27 10:41:49;;;;;;;1.67;0.93;;;;;;;-145.69;100.00;70767.69;5027697;28;20200;-76
2022/09/27 10:44:24;;;;;;;2.23;1.10;;;;;;;-145.69;100.00;70773.66;5015336;28;20232;-75
2022/09/27 10:46:53;;;;;;;1.57;1.30;;;;;;;-145.69;100.00;70741.81;5015558;28;20196;-74
2022/09/27 10:49:22;;;;;;;2.10;1.00;;;;;;;-145.69;100.00;70727.88;5015364;28;20205;-76
2022/09/27 10:51:53;;;;;;;0.70;0.70;;;;;;;-145.69;100.00;70698.03;5015439;28;20239;-77
2022/09/27 10:54:21;;;;;;;1.87;0.80;;;;;;;-145.69;99.81;70684.13;5017980;28;20697;-76
2022/09/27 10:56:55;;;;;;;2.63;0.82;;;;;;;-145.69;100.00;70670.19;5034057;28;20446;-76
2022/09/27 10:59:23;;;;;;;2.73;0.83;;;;;;;-145.69;100.00;70666.22;5032603;28;20196;-76
2022/09/27 11:01:50;;;;;;;1.13;0.80;;;;;;;-145.69;99.95;70578.69;5027947;28;20199;-76
2022/09/27 11:04:23;;;;;;;1.35;0.98;;;;;;;-145.69;100.00;70558.78;5025569;28;20231;-76
2022/09/27 11:06:51;;;;;;;0.82;0.70;;;;;;;-145.69;97.56;70550.81;5034521;28;20212;-76
2022/09/27 11:09:23;;;;;;;1.27;0.60;;;;;;;-145.69;94.89;70624.44;5033747;28;20812;-78
2022/09/27 11:11:49;;;;;;;0.93;0.60;;;;;;;-145.69;100.00;70634.38;5035050;28;20200;-76
2022/09/27 11:14:22;;;;;;;2.85;0.57;;;;;;;-145.69;100.00;70654.28;5034889;28;20208;-77
2022/09/27 11:17:09;;;;;;;1.20;0.77;;;;;;;-145.69;100.00;70642.34;5033883;28;20255;-76
2022/09/27 11:19:49;;;;;;;0.93;0.50;;;;;;;-145.69;98.24;70630.41;5016593;28;20232;-76
2022/09/27 11:22:32;;;;;;;0.70;0.70;;;;;;;-145.69;99.42;70610.50;5028975;28;20207;-76
2022/09/27 11:25:14;;;;;;;1.27;0.70;;;;;;;-145.69;98.33;70550.81;5033989;28;20227;-76
2022/09/27 11:27:56;;;;;;;1.23;0.53;;;;;;;-145.69;98.14;70614.47;5034441;28;20287;-76
2022/09/27 11:30:24;;;;;;;1.70;0.55;;;;;;;-145.69;96.26;70638.34;5034500;28;20207;-77